KDHN/DHN METAR and TAF weather

Enter ICAO airport designator
Station Type Date Time Source
KDHN METAR 2020/02/28 07:53 UTC NOAA

KDHN 280753Z AUTO 27003KT 10SM CLR 03/M02 A3027 RMK AO2 SLP252 T00281022


Station Type Date Time Source
KDHN Decoded METAR 2020/02/28 07:53 UTC NOAA

DOTHAN AIRPORT, AL, United States (KDHN) 31-19N 085-27W 113M
Feb 28, 2020 - 02:53 AM EST / 2020.02.28 0753 UTC
Wind: from the W (270 degrees) at 3 MPH (3 KT):0
Visibility: 10 mile(s):0
Sky conditions: clear
Temperature: 37.0 F (2.8 C)
Dew Point: 28.0 F (-2.2 C)
Relative Humidity: 69%
Pressure (altimeter): 30.27 in. Hg (1025 hPa)
ob: KDHN 280753Z AUTO 27003KT 10SM CLR 03/M02 A3027 RMK AO2 SLP252 T00281022
cycle: 8

Station Type Date Time Source
KDHN TAF 2020/02/28 06:36 UTC NOAA

TAF KDHN 280535Z 2806/2906 30006KT P6SM SKC
FM281500 27012G18KT P6SM SKC
FM282300 28008KT P6SM SKC

Example: see airport list